Aviation Digital Data Service (ADDS)

Output produced by METARs form (1849 UTC 26 October 2021)
found at http://aviationweather.gov/metar/data/
 
METAR text: KDKB 261835Z AUTO 01004KT 10SM CLR 13/03 A3009 RMK AO2 T01340034
Conditions at: KDKB (DE KALB , IL, US) observed 1835 UTC 26 October 2021
Temperature: 13.4°C (56°F)
Dewpoint: 3.4°C (38°F) [RH = 51%]
Pressure (altimeter): 30.09 inches Hg (1019.0 mb)
Winds: from the N (10 degrees) at 5 MPH (4 knots; 2.1 m/s)
Visibility: 10 or more miles (16+ km)
Ceiling: at least 12,000 feet AGL
Clouds: sky clear below 12,000 feet AGL
Weather: automated observation with no human augmentation;
there may or may not be significant weather present at this time